MDL386 WARR-WALL
Flight info
| Callsign | MDL386 |
|---|---|
| Flight time | 1h 14m |
| Altitude | 39000 |
| Route | RAMPY T13 IKAPI T11 KAYAN |
| Aircraft | A20N/M-SDE2E3FGHIRWXY/LB1 |
Departure
| Time | 2026-04-27 10:34 |
|---|---|
| Airport | Juanda International Airport (WARR) |
Arrival
| Time | 2026-04-27 11:49 |
|---|---|
| Airport | Sultan Aji Muhammad Sulaiman Sepinggan International Airport (WALL) |
| Time | Latitude | Longitude | Altitude | Speed | Heading |
|---|---|---|---|---|---|
| 2026-04-27 10:16 | -7.37567 | 112.79347 | 9 ft | 0 kts | 9° |
| 2026-04-27 10:25 | -7.37583 | 112.79345 | 10 ft | 2 kts | 9° |
| 2026-04-27 10:25 | -7.37600 | 112.79342 | 10 ft | 2 kts | 9° |
| 2026-04-27 10:25 | -7.37616 | 112.79339 | 9 ft | 2 kts | 9° |
| 2026-04-27 10:25 | -7.37632 | 112.79336 | 9 ft | 2 kts | 10° |
| 2026-04-27 10:26 | -7.37649 | 112.79336 | 10 ft | 2 kts | 324° |
| 2026-04-27 10:26 | -7.37659 | 112.79348 | 9 ft | 2 kts | 291° |
| 2026-04-27 10:26 | -7.37664 | 112.79364 | 9 ft | 2 kts | 280° |
| 2026-04-27 10:26 | -7.37666 | 112.79381 | 9 ft | 2 kts | 279° |
| 2026-04-27 10:27 | -7.37667 | 112.79385 | 9 ft | 0 kts | 279° |
| 2026-04-27 10:28 | -7.37667 | 112.79382 | 9 ft | 2 kts | 279° |
| 2026-04-27 10:28 | -7.37660 | 112.79338 | 9 ft | 11 kts | 279° |
| 2026-04-27 10:28 | -7.37643 | 112.79233 | 9 ft | 18 kts | 280° |
| 2026-04-27 10:29 | -7.37627 | 112.79117 | 9 ft | 8 kts | 250° |
| 2026-04-27 10:29 | -7.37687 | 112.79093 | 9 ft | 11 kts | 187° |
| 2026-04-27 10:29 | -7.37777 | 112.79080 | 9 ft | 15 kts | 189° |
| 2026-04-27 10:29 | -7.37859 | 112.79027 | 9 ft | 16 kts | 260° |
| 2026-04-27 10:30 | -7.37843 | 112.78908 | 9 ft | 19 kts | 279° |
| 2026-04-27 10:30 | -7.37821 | 112.78769 | 9 ft | 22 kts | 279° |
| 2026-04-27 10:30 | -7.37795 | 112.78611 | 9 ft | 24 kts | 278° |
| 2026-04-27 10:30 | -7.37767 | 112.78437 | 9 ft | 26 kts | 279° |
| 2026-04-27 10:31 | -7.37737 | 112.78254 | 9 ft | 26 kts | 278° |
| 2026-04-27 10:31 | -7.37708 | 112.78067 | 9 ft | 28 kts | 279° |
| 2026-04-27 10:31 | -7.37677 | 112.77877 | 9 ft | 28 kts | 279° |
| 2026-04-27 10:31 | -7.37646 | 112.77684 | 11 ft | 26 kts | 279° |
| 2026-04-27 10:32 | -7.37618 | 112.77517 | 8 ft | 23 kts | 279° |
| 2026-04-27 10:32 | -7.37634 | 112.77392 | 8 ft | 14 kts | 211° |
| 2026-04-27 10:32 | -7.37720 | 112.77371 | 8 ft | 13 kts | 191° |
| 2026-04-27 10:32 | -7.37774 | 112.77386 | 9 ft | 8 kts | 100° |
| 2026-04-27 10:33 | -7.37777 | 112.77410 | 9 ft | 0 kts | 98° |
| 2026-04-27 10:33 | -7.37781 | 112.77436 | 9 ft | 13 kts | 98° |
| 2026-04-27 10:33 | -7.37815 | 112.77651 | 8 ft | 61 kts | 98° |
| 2026-04-27 10:34 | -7.37919 | 112.78295 | 8 ft | 122 kts | 99° |
| 2026-04-27 10:34 | -7.38080 | 112.79293 | 174 ft | 160 kts | 99° |
| 2026-04-27 10:34 | -7.38284 | 112.80483 | 614 ft | 185 kts | 98° |
| 2026-04-27 10:34 | -7.38492 | 112.81856 | 1105 ft | 209 kts | 98° |
| 2026-04-27 10:35 | -7.38702 | 112.83383 | 1628 ft | 236 kts | 97° |
| 2026-04-27 10:35 | -7.38925 | 112.85092 | 2211 ft | 254 kts | 98° |
| 2026-04-27 10:35 | -7.39213 | 112.86901 | 2750 ft | 265 kts | 100° |
| 2026-04-27 10:35 | -7.39540 | 112.88738 | 3589 ft | 267 kts | 101° |
| 2026-04-27 10:36 | -7.39863 | 112.90586 | 4542 ft | 269 kts | 97° |
| 2026-04-27 10:36 | -7.39711 | 112.92470 | 5501 ft | 274 kts | 72° |
| 2026-04-27 10:36 | -7.38775 | 112.94152 | 6457 ft | 279 kts | 54° |
| 2026-04-27 10:36 | -7.37598 | 112.95722 | 7405 ft | 282 kts | 53° |
| 2026-04-27 10:37 | -7.36402 | 112.97300 | 8339 ft | 285 kts | 54° |
| 2026-04-27 10:37 | -7.35196 | 112.98899 | 9277 ft | 288 kts | 54° |
| 2026-04-27 10:37 | -7.33983 | 113.00518 | 10135 ft | 293 kts | 54° |
| 2026-04-27 10:37 | -7.32714 | 113.02220 | 10525 ft | 315 kts | 54° |
| 2026-04-27 10:38 | -7.31350 | 113.04055 | 10813 ft | 338 kts | 54° |
| 2026-04-27 10:38 | -7.29923 | 113.05974 | 11484 ft | 344 kts | 54° |
| 2026-04-27 10:38 | -7.28478 | 113.07915 | 12307 ft | 347 kts | 54° |
| 2026-04-27 10:38 | -7.26885 | 113.09724 | 13089 ft | 353 kts | 42° |
| 2026-04-27 10:39 | -7.24809 | 113.11074 | 13837 ft | 360 kts | 26° |
| 2026-04-27 10:39 | -7.22399 | 113.11823 | 14496 ft | 366 kts | 15° |
| 2026-04-27 10:39 | -7.19899 | 113.12399 | 15167 ft | 370 kts | 14° |
| 2026-04-27 10:39 | -7.17371 | 113.12981 | 15832 ft | 374 kts | 14° |
| 2026-04-27 10:40 | -7.14819 | 113.13572 | 16475 ft | 378 kts | 14° |
| 2026-04-27 10:40 | -7.12238 | 113.14174 | 17108 ft | 382 kts | 14° |
| 2026-04-27 10:40 | -7.09635 | 113.14784 | 17739 ft | 386 kts | 14° |
| 2026-04-27 10:40 | -7.07009 | 113.15400 | 18317 ft | 390 kts | 14° |
| 2026-04-27 10:41 | -7.04350 | 113.16024 | 18851 ft | 393 kts | 14° |
| 2026-04-27 10:41 | -7.01674 | 113.16652 | 19387 ft | 397 kts | 14° |
| 2026-04-27 10:41 | -6.99009 | 113.17278 | 19907 ft | 400 kts | 14° |
| 2026-04-27 10:41 | -6.96290 | 113.17916 | 20404 ft | 404 kts | 14° |
| 2026-04-27 10:42 | -6.93545 | 113.18560 | 20529 ft | 405 kts | 14° |
| 2026-04-27 10:42 | -6.90798 | 113.19204 | 20634 ft | 405 kts | 14° |
| 2026-04-27 10:42 | -6.88051 | 113.19848 | 20729 ft | 406 kts | 14° |
| 2026-04-27 10:42 | -6.85288 | 113.20496 | 20821 ft | 407 kts | 14° |
| 2026-04-27 10:43 | -6.82523 | 113.21145 | 20839 ft | 407 kts | 14° |
| 2026-04-27 10:43 | -6.79766 | 113.21791 | 20836 ft | 407 kts | 14° |
| 2026-04-27 10:43 | -6.77006 | 113.22438 | 20838 ft | 406 kts | 14° |
| 2026-04-27 10:43 | -6.74249 | 113.23084 | 20837 ft | 407 kts | 14° |
| 2026-04-27 10:44 | -6.71493 | 113.23730 | 20834 ft | 407 kts | 14° |
| 2026-04-27 10:44 | -6.68769 | 113.24368 | 20833 ft | 407 kts | 14° |
| 2026-04-27 10:44 | -6.66010 | 113.25015 | 20835 ft | 407 kts | 14° |
| 2026-04-27 10:44 | -6.63247 | 113.25662 | 20833 ft | 407 kts | 14° |
| 2026-04-27 10:45 | -6.60487 | 113.26308 | 20834 ft | 407 kts | 14° |
| 2026-04-27 10:45 | -6.57726 | 113.26955 | 20836 ft | 407 kts | 14° |
| 2026-04-27 10:45 | -6.54966 | 113.27602 | 20834 ft | 407 kts | 14° |
| 2026-04-27 10:45 | -6.52209 | 113.28247 | 20835 ft | 407 kts | 14° |
| 2026-04-27 10:46 | -6.49446 | 113.28894 | 20846 ft | 408 kts | 14° |
| 2026-04-27 10:46 | -6.46660 | 113.29547 | 21239 ft | 411 kts | 14° |
| 2026-04-27 10:46 | -6.43872 | 113.30199 | 21827 ft | 413 kts | 14° |
| 2026-04-27 10:46 | -6.41063 | 113.30857 | 22325 ft | 416 kts | 14° |
| 2026-04-27 10:47 | -6.38263 | 113.31512 | 22800 ft | 420 kts | 15° |
| 2026-04-27 10:47 | -6.35405 | 113.32181 | 23289 ft | 423 kts | 15° |
| 2026-04-27 10:47 | -6.32524 | 113.32855 | 23718 ft | 426 kts | 15° |
| 2026-04-27 10:47 | -6.29626 | 113.33533 | 24142 ft | 428 kts | 15° |
| 2026-04-27 10:48 | -6.26720 | 113.34233 | 24556 ft | 430 kts | 17° |
| 2026-04-27 10:48 | -6.23888 | 113.35202 | 24958 ft | 431 kts | 24° |
| 2026-04-27 10:48 | -6.21172 | 113.36479 | 25352 ft | 432 kts | 28° |
| 2026-04-27 10:48 | -6.18457 | 113.37818 | 25747 ft | 435 kts | 27° |
| 2026-04-27 10:49 | -6.15730 | 113.39153 | 26136 ft | 437 kts | 27° |
| 2026-04-27 10:49 | -6.12988 | 113.40493 | 26512 ft | 440 kts | 27° |
| 2026-04-27 10:49 | -6.10225 | 113.41841 | 26891 ft | 442 kts | 27° |
| 2026-04-27 10:49 | -6.07484 | 113.43179 | 27258 ft | 444 kts | 27° |
| 2026-04-27 10:50 | -6.04699 | 113.44538 | 27619 ft | 446 kts | 27° |
| 2026-04-27 10:50 | -6.01898 | 113.45906 | 27959 ft | 449 kts | 27° |
| 2026-04-27 10:50 | -5.99078 | 113.47283 | 28314 ft | 451 kts | 27° |
| 2026-04-27 10:50 | -5.96243 | 113.48666 | 28673 ft | 453 kts | 27° |
| 2026-04-27 10:51 | -5.93391 | 113.50058 | 28999 ft | 455 kts | 27° |
| 2026-04-27 10:51 | -5.90534 | 113.51453 | 29336 ft | 457 kts | 27° |
| 2026-04-27 10:51 | -5.87662 | 113.52854 | 29673 ft | 459 kts | 27° |
| 2026-04-27 10:51 | -5.84813 | 113.54244 | 29988 ft | 461 kts | 27° |
| 2026-04-27 10:52 | -5.81924 | 113.55654 | 30286 ft | 463 kts | 27° |
| 2026-04-27 10:52 | -5.79998 | 113.56593 | 30473 ft | 464 kts | 27° |
| 2026-04-27 10:52 | -5.77088 | 113.58012 | 30779 ft | 466 kts | 27° |
| 2026-04-27 10:52 | -5.73185 | 113.59916 | 31250 ft | 466 kts | 27° |
| 2026-04-27 10:53 | -5.71255 | 113.60856 | 31523 ft | 465 kts | 27° |
| 2026-04-27 10:53 | -5.65442 | 113.63690 | 32337 ft | 463 kts | 27° |
| 2026-04-27 10:53 | -5.62552 | 113.65099 | 32743 ft | 461 kts | 27° |
| 2026-04-27 10:54 | -5.59667 | 113.66505 | 33137 ft | 460 kts | 27° |
| 2026-04-27 10:54 | -5.55863 | 113.68359 | 33629 ft | 458 kts | 27° |
| 2026-04-27 10:54 | -5.53921 | 113.69306 | 33876 ft | 457 kts | 27° |
| 2026-04-27 10:54 | -5.51058 | 113.70700 | 34180 ft | 457 kts | 27° |
| 2026-04-27 10:55 | -5.48203 | 113.72092 | 34462 ft | 456 kts | 27° |
| 2026-04-27 10:55 | -5.45345 | 113.73484 | 34734 ft | 456 kts | 27° |
| 2026-04-27 10:55 | -5.42528 | 113.74856 | 35007 ft | 456 kts | 27° |
| 2026-04-27 10:55 | -5.39669 | 113.76249 | 35270 ft | 455 kts | 27° |
| 2026-04-27 10:56 | -5.36820 | 113.77637 | 35534 ft | 455 kts | 27° |
| 2026-04-27 10:56 | -5.33968 | 113.79026 | 35802 ft | 455 kts | 27° |
| 2026-04-27 10:56 | -5.31114 | 113.80415 | 36077 ft | 455 kts | 27° |
| 2026-04-27 10:56 | -5.28265 | 113.81802 | 36346 ft | 455 kts | 27° |
| 2026-04-27 10:57 | -5.25415 | 113.83190 | 36619 ft | 455 kts | 27° |
| 2026-04-27 10:57 | -5.22572 | 113.84574 | 36882 ft | 455 kts | 27° |
| 2026-04-27 10:57 | -5.19726 | 113.85959 | 37144 ft | 454 kts | 27° |
| 2026-04-27 10:57 | -5.16883 | 113.87343 | 37408 ft | 454 kts | 27° |
| 2026-04-27 10:58 | -5.14042 | 113.88725 | 37655 ft | 454 kts | 27° |
| 2026-04-27 10:58 | -5.11198 | 113.90109 | 37902 ft | 454 kts | 27° |
| 2026-04-27 10:58 | -5.08359 | 113.91490 | 38147 ft | 453 kts | 27° |
| 2026-04-27 10:58 | -5.05524 | 113.92870 | 38383 ft | 453 kts | 27° |
| 2026-04-27 10:59 | -5.02688 | 113.94249 | 38586 ft | 453 kts | 27° |
| 2026-04-27 10:59 | -4.99858 | 113.95626 | 38767 ft | 452 kts | 27° |
| 2026-04-27 10:59 | -4.97068 | 113.96992 | 38829 ft | 452 kts | 28° |
| 2026-04-27 11:00 | -4.89111 | 114.02001 | 38837 ft | 450 kts | 35° |
| 2026-04-27 11:00 | -4.83888 | 114.05464 | 38837 ft | 450 kts | 34° |
| 2026-04-27 11:01 | -4.78660 | 114.08927 | 38840 ft | 450 kts | 34° |
| 2026-04-27 11:01 | -4.73434 | 114.12390 | 38841 ft | 450 kts | 34° |
| 2026-04-27 11:02 | -4.68202 | 114.15855 | 38839 ft | 450 kts | 34° |
| 2026-04-27 11:02 | -4.62977 | 114.19316 | 38835 ft | 450 kts | 35° |
| 2026-04-27 11:03 | -4.57783 | 114.22756 | 38834 ft | 450 kts | 34° |
| 2026-04-27 11:03 | -4.52556 | 114.26216 | 38832 ft | 450 kts | 34° |
| 2026-04-27 11:04 | -4.47337 | 114.29672 | 38836 ft | 450 kts | 34° |
| 2026-04-27 11:04 | -4.42104 | 114.33135 | 38832 ft | 449 kts | 34° |
| 2026-04-27 11:05 | -4.36882 | 114.36591 | 38834 ft | 449 kts | 34° |
| 2026-04-27 11:05 | -4.31667 | 114.40041 | 38830 ft | 449 kts | 34° |
| 2026-04-27 11:06 | -4.26448 | 114.43494 | 38833 ft | 449 kts | 34° |
| 2026-04-27 11:06 | -4.21255 | 114.46929 | 38833 ft | 449 kts | 34° |
| 2026-04-27 11:07 | -4.16040 | 114.50378 | 38833 ft | 449 kts | 34° |
| 2026-04-27 11:07 | -4.10824 | 114.53827 | 38834 ft | 449 kts | 34° |
| 2026-04-27 11:08 | -4.05608 | 114.57275 | 38834 ft | 449 kts | 34° |
| 2026-04-27 11:08 | -4.00390 | 114.60724 | 38837 ft | 449 kts | 34° |
| 2026-04-27 11:09 | -3.95172 | 114.64173 | 38839 ft | 449 kts | 34° |
| 2026-04-27 11:09 | -3.89956 | 114.67619 | 38840 ft | 449 kts | 34° |
| 2026-04-27 11:10 | -3.84774 | 114.71043 | 38841 ft | 449 kts | 34° |
| 2026-04-27 11:10 | -3.79563 | 114.74485 | 38844 ft | 449 kts | 34° |
| 2026-04-27 11:11 | -3.74347 | 114.77931 | 38840 ft | 448 kts | 34° |
| 2026-04-27 11:11 | -3.69139 | 114.81370 | 38835 ft | 448 kts | 34° |
| 2026-04-27 11:12 | -3.63925 | 114.84813 | 38836 ft | 448 kts | 34° |
| 2026-04-27 11:12 | -3.58713 | 114.88253 | 38833 ft | 448 kts | 34° |
| 2026-04-27 11:13 | -3.53543 | 114.91666 | 38832 ft | 448 kts | 34° |
| 2026-04-27 11:13 | -3.48329 | 114.95107 | 38832 ft | 448 kts | 34° |
| 2026-04-27 11:14 | -3.43123 | 114.98543 | 38837 ft | 448 kts | 34° |
| 2026-04-27 11:14 | -3.37914 | 115.01980 | 38827 ft | 448 kts | 34° |
| 2026-04-27 11:15 | -3.32705 | 115.05417 | 38835 ft | 448 kts | 34° |
| 2026-04-27 11:15 | -3.27490 | 115.08857 | 38840 ft | 449 kts | 34° |
| 2026-04-27 11:16 | -3.22274 | 115.12297 | 38844 ft | 449 kts | 34° |
| 2026-04-27 11:16 | -3.17089 | 115.15717 | 38846 ft | 449 kts | 34° |
| 2026-04-27 11:17 | -3.11861 | 115.19165 | 38846 ft | 449 kts | 34° |
| 2026-04-27 11:17 | -3.06630 | 115.22614 | 38854 ft | 449 kts | 34° |
| 2026-04-27 11:18 | -3.01404 | 115.26059 | 38853 ft | 450 kts | 34° |
| 2026-04-27 11:18 | -2.96174 | 115.29507 | 38854 ft | 450 kts | 34° |
| 2026-04-27 11:19 | -2.90980 | 115.32930 | 38857 ft | 450 kts | 34° |
| 2026-04-27 11:19 | -2.85747 | 115.36379 | 38856 ft | 450 kts | 34° |
| 2026-04-27 11:20 | -2.80519 | 115.39824 | 38864 ft | 450 kts | 34° |
| 2026-04-27 11:20 | -2.75284 | 115.43273 | 38863 ft | 450 kts | 34° |
| 2026-04-27 11:21 | -2.70055 | 115.46718 | 38868 ft | 450 kts | 34° |
| 2026-04-27 11:21 | -2.64817 | 115.50168 | 38868 ft | 450 kts | 34° |
| 2026-04-27 11:22 | -2.59587 | 115.53613 | 38866 ft | 450 kts | 35° |
| 2026-04-27 11:22 | -2.56966 | 115.55339 | 38702 ft | 450 kts | 35° |
| 2026-04-27 11:22 | -2.54394 | 115.57033 | 38470 ft | 448 kts | 35° |
| 2026-04-27 11:23 | -2.51788 | 115.58749 | 38201 ft | 447 kts | 35° |
| 2026-04-27 11:23 | -2.49183 | 115.60465 | 37941 ft | 448 kts | 35° |
| 2026-04-27 11:23 | -2.46569 | 115.62186 | 37681 ft | 449 kts | 35° |
| 2026-04-27 11:23 | -2.43957 | 115.63906 | 37423 ft | 449 kts | 35° |
| 2026-04-27 11:24 | -2.41345 | 115.65626 | 37168 ft | 449 kts | 35° |
| 2026-04-27 11:24 | -2.38731 | 115.67347 | 36912 ft | 450 kts | 35° |
| 2026-04-27 11:24 | -2.36116 | 115.69069 | 36583 ft | 451 kts | 35° |
| 2026-04-27 11:24 | -2.33484 | 115.70802 | 35914 ft | 454 kts | 35° |
| 2026-04-27 11:25 | -2.30862 | 115.72528 | 35050 ft | 460 kts | 35° |
| 2026-04-27 11:25 | -2.28182 | 115.74292 | 34265 ft | 462 kts | 35° |
| 2026-04-27 11:25 | -2.25505 | 115.76072 | 33434 ft | 463 kts | 37° |
| 2026-04-27 11:25 | -2.22976 | 115.78065 | 32662 ft | 461 kts | 43° |
| 2026-04-27 11:26 | -2.20678 | 115.80291 | 31818 ft | 460 kts | 49° |
| 2026-04-27 11:26 | -2.18519 | 115.82655 | 30956 ft | 462 kts | 49° |
| 2026-04-27 11:26 | -2.16342 | 115.85022 | 30128 ft | 462 kts | 49° |
| 2026-04-27 11:26 | -2.14159 | 115.87388 | 29330 ft | 460 kts | 49° |
| 2026-04-27 11:27 | -2.12003 | 115.89723 | 28828 ft | 452 kts | 49° |
| 2026-04-27 11:27 | -2.09896 | 115.92007 | 28358 ft | 442 kts | 49° |
| 2026-04-27 11:27 | -2.07821 | 115.94257 | 27770 ft | 437 kts | 49° |
| 2026-04-27 11:27 | -2.05777 | 115.96475 | 27200 ft | 432 kts | 49° |
| 2026-04-27 11:28 | -2.03782 | 115.98642 | 26631 ft | 427 kts | 49° |
| 2026-04-27 11:28 | -2.01774 | 116.00821 | 26047 ft | 424 kts | 48° |
| 2026-04-27 11:28 | -1.99787 | 116.02978 | 25470 ft | 420 kts | 48° |
| 2026-04-27 11:28 | -1.97819 | 116.05115 | 24886 ft | 417 kts | 48° |
| 2026-04-27 11:29 | -1.95856 | 116.07246 | 24317 ft | 414 kts | 48° |
| 2026-04-27 11:29 | -1.93913 | 116.09355 | 23751 ft | 412 kts | 48° |
| 2026-04-27 11:29 | -1.91979 | 116.11455 | 23136 ft | 410 kts | 48° |
| 2026-04-27 11:29 | -1.90061 | 116.13537 | 22611 ft | 404 kts | 48° |
| 2026-04-27 11:30 | -1.88168 | 116.15590 | 22057 ft | 399 kts | 48° |
| 2026-04-27 11:30 | -1.86294 | 116.17624 | 21498 ft | 395 kts | 48° |
| 2026-04-27 11:30 | -1.84443 | 116.19635 | 20963 ft | 391 kts | 48° |
| 2026-04-27 11:30 | -1.82607 | 116.21631 | 20401 ft | 388 kts | 48° |
| 2026-04-27 11:31 | -1.80789 | 116.23608 | 19853 ft | 385 kts | 48° |
| 2026-04-27 11:31 | -1.79004 | 116.25548 | 19299 ft | 383 kts | 47° |
| 2026-04-27 11:31 | -1.77208 | 116.27500 | 18736 ft | 381 kts | 47° |
| 2026-04-27 11:31 | -1.75426 | 116.29437 | 18198 ft | 379 kts | 47° |
| 2026-04-27 11:32 | -1.73649 | 116.31368 | 17655 ft | 375 kts | 47° |
| 2026-04-27 11:32 | -1.71894 | 116.33274 | 17200 ft | 368 kts | 47° |
| 2026-04-27 11:32 | -1.70155 | 116.35164 | 17074 ft | 376 kts | 47° |
| 2026-04-27 11:32 | -1.68376 | 116.37109 | 17012 ft | 380 kts | 48° |
| 2026-04-27 11:33 | -1.66601 | 116.39056 | 16709 ft | 379 kts | 48° |
| 2026-04-27 11:33 | -1.64816 | 116.41013 | 16043 ft | 383 kts | 48° |
| 2026-04-27 11:33 | -1.63012 | 116.42991 | 15403 ft | 382 kts | 48° |
| 2026-04-27 11:33 | -1.61267 | 116.44902 | 15159 ft | 369 kts | 48° |
| 2026-04-27 11:34 | -1.59563 | 116.46768 | 15010 ft | 363 kts | 48° |
| 2026-04-27 11:34 | -1.57845 | 116.48649 | 14737 ft | 367 kts | 48° |
| 2026-04-27 11:34 | -1.56129 | 116.50528 | 14466 ft | 364 kts | 48° |
| 2026-04-27 11:34 | -1.54428 | 116.52390 | 14195 ft | 361 kts | 48° |
| 2026-04-27 11:35 | -1.52849 | 116.54340 | 13916 ft | 360 kts | 56° |
| 2026-04-27 11:35 | -1.51613 | 116.56506 | 13529 ft | 360 kts | 65° |
| 2026-04-27 11:35 | -1.50698 | 116.58838 | 13033 ft | 358 kts | 70° |
| 2026-04-27 11:35 | -1.49837 | 116.61154 | 12582 ft | 352 kts | 69° |
| 2026-04-27 11:36 | -1.48981 | 116.63426 | 12144 ft | 348 kts | 69° |
| 2026-04-27 11:36 | -1.48122 | 116.65698 | 11701 ft | 350 kts | 69° |
| 2026-04-27 11:36 | -1.47264 | 116.67961 | 11258 ft | 346 kts | 69° |
| 2026-04-27 11:36 | -1.46418 | 116.70196 | 10840 ft | 341 kts | 69° |
| 2026-04-27 11:37 | -1.45579 | 116.72411 | 10521 ft | 342 kts | 69° |
| 2026-04-27 11:37 | -1.44737 | 116.74636 | 10106 ft | 341 kts | 69° |
| 2026-04-27 11:37 | -1.43908 | 116.76825 | 9872 ft | 330 kts | 69° |
| 2026-04-27 11:37 | -1.43114 | 116.78924 | 9743 ft | 315 kts | 69° |
| 2026-04-27 11:38 | -1.42355 | 116.80931 | 9622 ft | 301 kts | 69° |
| 2026-04-27 11:38 | -1.41647 | 116.82844 | 9320 ft | 295 kts | 70° |
| 2026-04-27 11:38 | -1.40947 | 116.84764 | 8892 ft | 293 kts | 70° |
| 2026-04-27 11:38 | -1.40252 | 116.86673 | 8467 ft | 291 kts | 70° |
| 2026-04-27 11:39 | -1.39560 | 116.88570 | 8066 ft | 289 kts | 70° |
| 2026-04-27 11:39 | -1.39101 | 116.89823 | 7790 ft | 288 kts | 70° |
| 2026-04-27 11:39 | -1.38420 | 116.91683 | 7523 ft | 281 kts | 70° |
| 2026-04-27 11:39 | -1.37753 | 116.93504 | 7294 ft | 277 kts | 70° |
| 2026-04-27 11:40 | -1.37083 | 116.95331 | 7091 ft | 281 kts | 69° |
| 2026-04-27 11:40 | -1.36414 | 116.97158 | 6981 ft | 279 kts | 70° |
| 2026-04-27 11:40 | -1.35744 | 116.98990 | 6625 ft | 282 kts | 69° |
| 2026-04-27 11:40 | -1.35073 | 117.00831 | 6245 ft | 282 kts | 69° |
| 2026-04-27 11:41 | -1.34402 | 117.02668 | 5836 ft | 280 kts | 69° |
| 2026-04-27 11:41 | -1.33744 | 117.04471 | 5444 ft | 279 kts | 69° |
| 2026-04-27 11:41 | -1.33081 | 117.06289 | 5057 ft | 277 kts | 69° |
| 2026-04-27 11:41 | -1.32422 | 117.08091 | 4613 ft | 274 kts | 69° |
| 2026-04-27 11:42 | -1.31718 | 117.09832 | 4205 ft | 264 kts | 58° |
| 2026-04-27 11:42 | -1.30458 | 117.11154 | 3898 ft | 268 kts | 31° |
| 2026-04-27 11:42 | -1.28715 | 117.11753 | 3553 ft | 265 kts | 4° |
| 2026-04-27 11:42 | -1.26911 | 117.11466 | 3228 ft | 266 kts | 339° |
| 2026-04-27 11:43 | -1.25230 | 117.10743 | 2881 ft | 264 kts | 336° |
| 2026-04-27 11:43 | -1.23545 | 117.10000 | 2625 ft | 258 kts | 337° |
| 2026-04-27 11:43 | -1.21941 | 117.09297 | 2514 ft | 245 kts | 337° |
| 2026-04-27 11:43 | -1.20552 | 117.08458 | 2491 ft | 224 kts | 314° |
| 2026-04-27 11:44 | -1.19851 | 117.07171 | 2499 ft | 204 kts | 283° |
| 2026-04-27 11:44 | -1.19879 | 117.05851 | 2486 ft | 179 kts | 255° |
| 2026-04-27 11:44 | -1.20324 | 117.04805 | 2497 ft | 149 kts | 246° |
| 2026-04-27 11:44 | -1.20719 | 117.03909 | 2502 ft | 141 kts | 248° |
| 2026-04-27 11:45 | -1.21102 | 117.03006 | 2494 ft | 139 kts | 249° |
| 2026-04-27 11:45 | -1.21481 | 117.02113 | 2405 ft | 140 kts | 248° |
| 2026-04-27 11:45 | -1.21859 | 117.01220 | 2238 ft | 139 kts | 248° |
| 2026-04-27 11:45 | -1.22233 | 117.00334 | 2047 ft | 139 kts | 248° |
| 2026-04-27 11:46 | -1.22606 | 116.99449 | 1867 ft | 138 kts | 248° |
| 2026-04-27 11:46 | -1.22975 | 116.98574 | 1690 ft | 138 kts | 247° |
| 2026-04-27 11:46 | -1.23348 | 116.97689 | 1525 ft | 138 kts | 248° |
| 2026-04-27 11:46 | -1.23720 | 116.96806 | 1341 ft | 138 kts | 247° |
| 2026-04-27 11:47 | -1.24093 | 116.95921 | 1161 ft | 137 kts | 247° |
| 2026-04-27 11:47 | -1.24463 | 116.95043 | 994 ft | 137 kts | 247° |
| 2026-04-27 11:47 | -1.24832 | 116.94169 | 826 ft | 135 kts | 247° |
| 2026-04-27 11:47 | -1.25191 | 116.93318 | 660 ft | 132 kts | 247° |
| 2026-04-27 11:48 | -1.25545 | 116.92477 | 480 ft | 130 kts | 247° |
| 2026-04-27 11:48 | -1.25893 | 116.91648 | 304 ft | 128 kts | 246° |
| 2026-04-27 11:48 | -1.26239 | 116.90842 | 165 ft | 128 kts | 246° |
| 2026-04-27 11:48 | -1.26587 | 116.90023 | 38 ft | 127 kts | 246° |
| 2026-04-27 11:49 | -1.26898 | 116.89301 | 22 ft | 89 kts | 246° |
| 2026-04-27 11:49 | -1.27061 | 116.88916 | 19 ft | 32 kts | 246° |
| 2026-04-27 11:49 | -1.27134 | 116.88741 | 19 ft | 32 kts | 247° |
| 2026-04-27 11:49 | -1.27225 | 116.88531 | 22 ft | 29 kts | 246° |
| 2026-04-27 11:50 | -1.27201 | 116.88376 | 21 ft | 22 kts | 329° |
| 2026-04-27 11:50 | -1.27080 | 116.88438 | 21 ft | 23 kts | 65° |
| 2026-04-27 11:50 | -1.27018 | 116.88585 | 21 ft | 24 kts | 67° |
| 2026-04-27 11:50 | -1.26949 | 116.88749 | 22 ft | 27 kts | 67° |
| 2026-04-27 11:51 | -1.26874 | 116.88926 | 23 ft | 29 kts | 67° |
| 2026-04-27 11:51 | -1.26807 | 116.89085 | 21 ft | 23 kts | 66° |
| 2026-04-27 11:51 | -1.26676 | 116.89394 | 23 ft | 26 kts | 67° |
| 2026-04-27 11:52 | -1.26607 | 116.89559 | 21 ft | 25 kts | 68° |
| 2026-04-27 11:52 | -1.26547 | 116.89701 | 21 ft | 16 kts | 67° |
| 2026-04-27 11:52 | -1.26478 | 116.89771 | 22 ft | 10 kts | 343° |
| 2026-04-27 11:52 | -1.26411 | 116.89793 | 21 ft | 11 kts | 29° |
| 2026-04-27 11:53 | -1.26363 | 116.89784 | 21 ft | 0 kts | 335° |
| 2026-04-27 11:53 | -1.26344 | 116.89776 | 23 ft | 3 kts | 336° |
| 2026-04-27 11:53 | -1.26341 | 116.89775 | 23 ft | 0 kts | 336° |